Time,TemperatureF,DewpointF,PressureIn,WindDirection,WindDirectionDegrees,WindSpeedMPH,WindSpeedGustMPH,Humidity,HourlyPrecipIn,Conditions,Clouds,dailyrainin,SoftwareType,DateUTC
2013-03-22 00:00:00,6.4,-4.5,26.37,NNE,33,0.0,3.0,60,0.00,,,-99.99,Weather View 32 v70,2013-03-22 05:00:00,
2013-03-22 00:05:00,6.4,-4.5,26.37,NNE,33,0.0,3.0,60,0.00,,,-99.99,Weather View 32 v70,2013-03-22 05:05:00,
2013-03-22 00:10:00,6.3,-4.6,26.37,NNE,33,0.0,3.0,60,0.00,,,-99.99,Weather View 32 v70,2013-03-22 05:10:00,
2013-03-22 00:19:00,5.9,-5.0,26.37,NNE,33,0.0,0.0,60,0.00,,,-99.99,Weather View 32 v70,2013-03-22 05:19:00,
2013-03-22 00:24:00,5.7,-5.2,26.37,NNE,33,0.0,0.0,60,0.00,,,-99.99,Weather View 32 v70,2013-03-22 05:24:00,
2013-03-22 00:29:00,5.5,-5.3,26.37,NNE,33,0.0,3.0,60,0.00,,,-99.99,Weather View 32 v70,2013-03-22 05:29:00,
2013-03-22 00:39:00,5.4,-5.5,26.37,NNE,33,0.0,3.0,60,0.00,,,-99.99,Weather View 32 v70,2013-03-22 05:39:00,
2013-03-22 00:44:00,5.2,-5.7,26.37,NE,34,0.0,3.0,60,0.00,,,-99.99,Weather View 32 v70,2013-03-22 05:44:00,
2013-03-22 00:49:00,5.0,-5.8,26.37,NNE,33,0.0,3.0,60,0.00,,,-99.99,Weather View 32 v70,2013-03-22 05:49:00,
2013-03-22 00:59:00,5.2,-5.7,26.37,NNE,33,0.0,3.0,60,0.00,,,-99.99,Weather View 32 v70,2013-03-22 05:59:00,
2013-03-22 01:09:00,5.2,-5.7,26.37,North,353,0.0,3.0,60,0.00,,,-99.99,Weather View 32 v70,2013-03-22 06:09:00,
2013-03-22 01:14:00,5.0,-5.8,26.37,WSW,254,4.0,4.0,60,0.00,,,-99.99,Weather View 32 v70,2013-03-22 06:14:00,
2013-03-22 01:24:00,4.5,-6.4,26.37,West,269,0.0,4.0,60,0.00,,,-99.99,Weather View 32 v70,2013-03-22 06:24:00,
2013-03-22 01:29:00,4.1,-6.7,26.37,West,269,0.0,4.0,60,0.00,,,-99.99,Weather View 32 v70,2013-03-22 06:29:00,
2013-03-22 01:34:00,3.4,-7.4,26.37,West,269,0.0,4.0,60,0.00,,,-99.99,Weather View 32 v70,2013-03-22 06:34:00,
2013-03-22 01:44:00,2.5,-8.2,26.37,West,268,0.0,4.0,60,0.00,,,-99.99,Weather View 32 v70,2013-03-22 06:44:00,
2013-03-22 01:49:00,1.9,-8.7,26.37,West,268,0.0,4.0,60,0.00,,,-99.99,Weather View 32 v70,2013-03-22 06:49:00,
2013-03-22 01:54:00,1.6,-9.1,26.37,West,268,0.0,4.0,60,0.00,,,-99.99,Weather View 32 v70,2013-03-22 06:54:00,
2013-03-22 02:04:00,1.2,-9.4,26.37,West,268,0.0,4.0,60,0.00,,,-99.99,Weather View 32 v70,2013-03-22 07:04:00,
2013-03-22 02:14:00,1.2,-9.4,26.37,West,268,0.0,4.0,60,0.00,,,-99.99,Weather View 32 v70,2013-03-22 07:14:00,
2013-03-22 02:19:00,1.4,-9.2,26.37,West,268,0.0,4.0,60,0.00,,,-99.99,Weather View 32 v70,2013-03-22 07:19:00,
2013-03-22 02:24:00,1.9,-8.7,26.37,West,270,0.0,4.0,60,0.00,,,-99.99,Weather View 32 v70,2013-03-22 07:24:00,
2013-03-22 02:29:00,2.7,-8.1,26.37,West,270,0.0,4.0,60,0.00,,,-99.99,Weather View 32 v70,2013-03-22 07:29:00,
2013-03-22 02:39:00,3.2,-7.5,26.37,West,270,0.0,4.0,60,0.00,,,-99.99,Weather View 32 v70,2013-03-22 07:39:00,
2013-03-22 02:44:00,3.2,-7.5,26.37,West,271,0.0,4.0,60,0.00,,,-99.99,Weather View 32 v70,2013-03-22 07:44:00,
2013-03-22 02:50:00,3.2,-7.5,26.37,West,271,0.0,0.0,60,0.00,,,-99.99,Weather View 32 v70,2013-03-22 07:50:00,
2013-03-22 02:55:00,3.2,-7.5,26.37,West,271,0.0,0.0,60,0.00,,,-99.99,Weather View 32 v70,2013-03-22 07:55:00,
2013-03-22 03:04:00,2.8,-7.9,26.37,West,271,0.0,0.0,60,0.00,,,-99.99,Weather View 32 v70,2013-03-22 08:04:00,
2013-03-22 03:09:00,2.8,-7.9,26.37,West,271,0.0,0.0,60,0.00,,,-99.99,Weather View 32 v70,2013-03-22 08:09:00,
2013-03-22 03:19:00,2.8,-7.9,26.37,West,270,0.0,0.0,60,0.00,,,-99.99,Weather View 32 v70,2013-03-22 08:19:00,
2013-03-22 03:24:00,3.0,-7.7,26.37,WNW,289,0.0,0.0,60,0.00,,,-99.99,Weather View 32 v70,2013-03-22 08:24:00,
2013-03-22 03:29:00,3.2,-7.5,26.37,WNW,290,0.0,0.0,60,0.00,,,-99.99,Weather View 32 v70,2013-03-22 08:29:00,
2013-03-22 03:39:00,3.0,-7.7,26.37,WNW,290,0.0,0.0,60,0.00,,,-99.99,Weather View 32 v70,2013-03-22 08:39:00,
2013-03-22 03:44:00,2.8,-7.9,26.37,WNW,291,0.0,0.0,60,0.00,,,-99.99,Weather View 32 v70,2013-03-22 08:44:00,
2013-03-22 03:49:00,2.8,-7.9,26.37,WNW,291,0.0,0.0,60,0.00,,,-99.99,Weather View 32 v70,2013-03-22 08:49:00,
2013-03-22 03:59:00,2.1,-8.6,26.37,West,275,0.0,4.0,60,0.00,,,-99.99,Weather View 32 v70,2013-03-22 08:59:00,
2013-03-22 04:04:00,1.9,-8.7,26.37,WNW,295,0.0,4.0,60,0.00,,,-99.99,Weather View 32 v70,2013-03-22 09:04:00,
2013-03-22 04:12:00,1.6,-9.1,26.37,West,280,0.0,4.0,60,0.00,,,-99.99,Weather View 32 v70,2013-03-22 09:12:00,
2013-03-22 04:19:00,0.9,-9.8,26.37,West,280,0.0,4.0,60,0.00,,,-99.99,Weather View 32 v70,2013-03-22 09:19:00,
2013-03-22 04:29:00,0.3,-10.3,26.37,West,280,0.0,4.0,60,0.00,,,-99.99,Weather View 32 v70,2013-03-22 09:29:00,
2013-03-22 04:34:00,0.1,-10.4,26.37,West,280,0.0,4.0,60,0.00,,,-99.99,Weather View 32 v70,2013-03-22 09:34:00,
2013-03-22 04:44:00,0.3,-10.3,26.37,West,280,0.0,4.0,60,0.00,,,-99.99,Weather View 32 v70,2013-03-22 09:44:00,
2013-03-22 04:54:00,1.2,-9.4,26.37,NNE,29,0.0,4.0,60,0.00,,,-99.99,Weather View 32 v70,2013-03-22 09:54:00,
2013-03-22 05:04:00,1.2,-9.4,26.37,NNE,20,0.0,3.0,60,0.00,,,-99.99,Weather View 32 v70,2013-03-22 10:04:00,
2013-03-22 05:13:00,1.2,-9.4,26.37,NNE,20,0.0,0.0,60,0.00,,,-99.99,Weather View 32 v70,2013-03-22 10:13:00,
2013-03-22 05:19:00,1.2,-9.4,26.37,NNE,20,0.0,0.0,60,0.00,,,-99.99,Weather View 32 v70,2013-03-22 10:19:00,
2013-03-22 05:24:00,1.2,-9.4,26.37,NNE,20,0.0,0.0,60,0.00,,,-99.99,Weather View 32 v70,2013-03-22 10:24:00,
2013-03-22 05:29:00,0.9,-9.8,26.37,NNE,21,0.0,0.0,60,0.00,,,-99.99,Weather View 32 v70,2013-03-22 10:29:00,
2013-03-22 05:39:00,0.7,-9.9,26.37,NNE,20,0.0,0.0,60,0.00,,,-99.99,Weather View 32 v70,2013-03-22 10:39:00,
2013-03-22 05:44:00,0.5,-10.1,26.37,NNE,20,0.0,0.0,60,0.00,,,-99.99,Weather View 32 v70,2013-03-22 10:44:00,
2013-03-22 05:50:00,0.3,-10.3,26.37,NNE,20,0.0,0.0,60,0.00,,,-99.99,Weather View 32 v70,2013-03-22 10:50:00,
2013-03-22 06:00:00,-0.2,-10.8,26.37,NNE,20,0.0,0.0,60,0.00,,,-99.99,Weather View 32 v70,2013-03-22 11:00:00,
2013-03-22 06:09:00,-0.4,-11.0,26.37,NNE,20,0.0,0.0,60,0.00,,,-99.99,Weather View 32 v70,2013-03-22 11:09:00,
2013-03-22 06:14:00,-0.2,-10.8,26.37,NNE,21,0.0,0.0,60,0.00,,,-99.99,Weather View 32 v70,2013-03-22 11:14:00,
2013-03-22 06:19:00,0.0,-10.6,26.37,NNE,21,0.0,0.0,60,0.00,,,-99.99,Weather View 32 v70,2013-03-22 11:19:00,
2013-03-22 06:29:00,-0.2,-10.8,26.37,NNE,20,0.0,0.0,60,0.00,,,-99.99,Weather View 32 v70,2013-03-22 11:29:00,
2013-03-22 06:34:00,-0.6,-11.1,26.37,NNE,20,0.0,0.0,60,0.00,,,-99.99,Weather View 32 v70,2013-03-22 11:34:00,
2013-03-22 06:39:00,-0.8,-11.3,26.37,NNE,20,0.0,0.0,60,0.00,,,-99.99,Weather View 32 v70,2013-03-22 11:39:00,
2013-03-22 06:49:00,-0.9,-11.5,26.37,NNE,20,0.0,0.0,60,0.00,,,-99.99,Weather View 32 v70,2013-03-22 11:49:00,
2013-03-22 06:59:00,-0.9,-11.5,26.37,NNE,20,0.0,0.0,60,0.00,,,-99.99,Weather View 32 v70,2013-03-22 11:59:00,
2013-03-22 07:04:00,-0.8,-11.3,26.37,NNE,20,0.0,0.0,60,0.00,,,-99.99,Weather View 32 v70,2013-03-22 12:04:00,
2013-03-22 07:09:00,-0.6,-11.1,26.37,NNE,20,0.0,0.0,60,0.00,,,-99.99,Weather View 32 v70,2013-03-22 12:09:00,
2013-03-22 07:19:00,-0.2,-10.8,26.37,NE,49,0.0,3.0,60,0.00,,,-99.99,Weather View 32 v70,2013-03-22 12:19:00,
2013-03-22 07:24:00,-0.2,-10.8,26.37,NE,49,0.0,3.0,60,0.00,,,-99.99,Weather View 32 v70,2013-03-22 12:24:00,
2013-03-22 07:29:00,-0.2,-10.8,26.37,NE,50,0.0,3.0,60,0.00,,,-99.99,Weather View 32 v70,2013-03-22 12:29:00,
2013-03-22 07:39:00,-0.4,-11.0,26.37,NE,49,0.0,3.0,60,0.00,,,-99.99,Weather View 32 v70,2013-03-22 12:39:00,
2013-03-22 07:44:00,-0.4,-11.0,26.37,NE,49,0.0,3.0,60,0.00,,,-99.99,Weather View 32 v70,2013-03-22 12:44:00,
2013-03-22 07:54:00,-0.4,-11.0,26.37,NE,49,0.0,3.0,60,0.00,,,-99.99,Weather View 32 v70,2013-03-22 12:54:00,
2013-03-22 07:59:00,-0.4,-11.0,26.37,NE,49,0.0,3.0,60,0.00,,,-99.99,Weather View 32 v70,2013-03-22 12:59:00,
2013-03-22 08:09:00,0.0,-10.6,26.37,NE,48,0.0,3.0,60,0.00,,,-99.99,Weather View 32 v70,2013-03-22 13:09:00,
2013-03-22 08:14:00,0.3,-10.3,26.37,NE,50,0.0,3.0,60,0.00,,,-99.99,Weather View 32 v70,2013-03-22 13:14:00,
2013-03-22 08:24:00,1.2,-9.4,26.37,NE,48,0.0,0.0,60,0.00,,,-99.99,Weather View 32 v70,2013-03-22 13:24:00,
2013-03-22 08:29:00,1.6,-9.1,26.37,NE,48,0.0,0.0,60,0.00,,,-99.99,Weather View 32 v70,2013-03-22 13:29:00,
2013-03-22 08:34:00,1.8,-8.9,26.37,NE,50,0.0,0.0,60,0.00,,,-99.99,Weather View 32 v70,2013-03-22 13:34:00,
2013-03-22 08:45:00,2.1,-8.6,26.37,NE,50,0.0,0.0,60,0.00,,,-99.99,Weather View 32 v70,2013-03-22 13:45:00,
2013-03-22 08:50:00,2.5,-8.2,26.37,NE,50,0.0,0.0,60,0.00,,,-99.99,Weather View 32 v70,2013-03-22 13:50:00,
2013-03-22 08:55:00,2.7,-8.1,26.37,NE,50,0.0,0.0,60,0.00,,,-99.99,Weather View 32 v70,2013-03-22 13:55:00,
2013-03-22 09:05:00,3.4,-7.4,26.37,NE,49,0.0,0.0,60,0.00,,,-99.99,Weather View 32 v70,2013-03-22 14:05:00,
2013-03-22 09:14:00,3.7,-7.0,26.37,NE,49,0.0,2.0,60,0.00,,,-99.99,Weather View 32 v70,2013-03-22 14:14:00,
2013-03-22 09:24:00,3.2,-7.5,26.37,West,271,0.0,3.0,60,0.00,,,-99.99,Weather View 32 v70,2013-03-22 14:24:00,
2013-03-22 09:29:00,3.7,-7.0,26.37,SSW,213,0.0,3.0,60,0.00,,,-99.99,Weather View 32 v70,2013-03-22 14:29:00,
2013-03-22 09:34:00,3.9,-6.9,26.37,SW,214,3.0,3.0,60,0.00,,,-99.99,Weather View 32 v70,2013-03-22 14:34:00,
2013-03-22 09:44:00,3.0,-7.7,26.37,WNW,291,3.0,5.0,60,0.00,,,-99.99,Weather View 32 v70,2013-03-22 14:44:00,
2013-03-22 09:49:00,2.8,-7.9,26.37,WNW,291,4.0,5.0,60,0.00,,,-99.99,Weather View 32 v70,2013-03-22 14:49:00,
2013-03-22 09:59:00,3.2,-7.5,26.37,WNW,286,0.0,5.0,60,0.00,,,-99.99,Weather View 32 v70,2013-03-22 14:59:00,
2013-03-22 10:09:00,4.6,-6.2,26.37,WNW,285,2.0,5.0,60,0.00,,,-99.99,Weather View 32 v70,2013-03-22 15:09:00,
2013-03-22 10:14:00,5.4,-5.5,26.37,West,273,4.0,5.0,60,0.00,,,-99.99,Weather View 32 v70,2013-03-22 15:14:00,
2013-03-22 10:24:00,5.5,-5.3,26.37,West,265,3.0,5.0,60,0.00,,,-99.99,Weather View 32 v70,2013-03-22 15:24:00,
2013-03-22 10:29:00,5.5,-5.3,26.37,West,264,3.0,5.0,60,0.00,,,-99.99,Weather View 32 v70,2013-03-22 15:29:00,
2013-03-22 10:39:00,6.1,-4.8,26.37,West,265,4.0,5.0,60,0.00,,,-99.99,Weather View 32 v70,2013-03-22 15:39:00,
2013-03-22 10:49:00,7.2,-3.8,26.37,West,271,3.0,6.0,60,0.00,,,-99.99,Weather View 32 v70,2013-03-22 15:49:00,
2013-03-22 10:59:00,8.4,-2.6,26.37,NW,305,0.0,6.0,60,0.00,,,-99.99,Weather View 32 v70,2013-03-22 15:59:00,
2013-03-22 11:09:00,10.2,-0.9,26.37,North,357,0.0,6.0,60,0.00,,,-99.99,Weather View 32 v70,2013-03-22 16:09:00,
2013-03-22 11:14:00,10.9,-0.2,26.37,NW,310,3.0,6.0,60,0.00,,,-99.99,Weather View 32 v70,2013-03-22 16:14:00,
2013-03-22 11:24:00,10.4,-0.7,26.37,West,271,5.0,6.0,60,0.00,,,-99.99,Weather View 32 v70,2013-03-22 16:24:00,
2013-03-22 11:29:00,10.2,-0.9,26.37,West,275,3.0,6.0,60,0.00,,,-99.99,Weather View 32 v70,2013-03-22 16:29:00,
2013-03-22 11:34:00,10.2,-0.9,26.37,West,266,4.0,6.0,60,0.00,,,-99.99,Weather View 32 v70,2013-03-22 16:34:00,
2013-03-22 11:39:00,10.6,-0.6,26.37,West,267,4.0,6.0,60,0.00,,,-99.99,Weather View 32 v70,2013-03-22 16:39:00,
2013-03-22 11:49:00,11.8,0.6,26.37,West,276,4.0,6.0,60,0.00,,,-99.99,Weather View 32 v70,2013-03-22 16:49:00,
2013-03-22 11:59:00,12.6,1.3,26.37,West,266,4.0,6.0,60,0.00,,,-99.99,Weather View 32 v70,2013-03-22 16:59:00,
2013-03-22 12:09:00,12.7,1.5,26.37,West,267,3.0,6.0,60,0.00,,,-99.99,Weather View 32 v70,2013-03-22 17:09:00,
2013-03-22 12:17:00,12.7,1.5,26.37,West,267,4.0,6.0,60,0.00,,,-99.99,Weather View 32 v70,2013-03-22 17:17:00,
2013-03-22 12:24:00,13.3,2.0,26.37,West,275,4.0,6.0,60,0.00,,,-99.99,Weather View 32 v70,2013-03-22 17:24:00,
2013-03-22 12:34:00,13.8,2.5,26.37,West,265,4.0,6.0,60,0.00,,,-99.99,Weather View 32 v70,2013-03-22 17:34:00,
2013-03-22 12:44:00,15.3,6.9,26.37,WSW,257,5.0,6.0,69,0.00,,,-99.99,Weather View 32 v70,2013-03-22 17:44:00,
2013-03-22 12:49:00,15.6,6.9,26.37,WSW,258,5.0,6.0,68,0.00,,,-99.99,Weather View 32 v70,2013-03-22 17:49:00,
2013-03-22 12:59:00,16.0,6.3,26.37,West,271,4.0,6.0,65,0.00,,,-99.99,Weather View 32 v70,2013-03-22 17:59:00,
2013-03-22 13:09:00,16.3,6.0,26.37,West,265,6.0,6.0,63,0.00,,,-99.99,Weather View 32 v70,2013-03-22 18:09:00,
2013-03-22 13:17:00,16.7,6.3,26.37,West,267,5.0,6.0,63,0.00,,,-99.99,Weather View 32 v70,2013-03-22 18:17:00,
2013-03-22 13:24:00,16.9,6.1,26.37,West,266,5.0,6.0,62,0.00,,,-99.99,Weather View 32 v70,2013-03-22 18:24:00,
2013-03-22 13:34:00,17.2,6.1,26.37,West,265,4.0,6.0,61,0.00,,,-99.99,Weather View 32 v70,2013-03-22 18:34:00,
2013-03-22 13:39:00,17.6,6.4,26.37,NNW,330,5.0,6.0,61,0.00,,,-99.99,Weather View 32 v70,2013-03-22 18:39:00,
2013-03-22 13:49:00,18.0,6.4,26.37,West,268,5.0,6.0,60,0.00,,,-99.99,Weather View 32 v70,2013-03-22 18:49:00,
2013-03-22 13:59:00,17.6,6.1,26.37,West,275,5.0,6.0,60,0.00,,,-99.99,Weather View 32 v70,2013-03-22 18:59:00,
2013-03-22 14:09:00,18.5,6.9,26.37,West,261,3.0,6.0,60,0.00,,,-99.99,Weather View 32 v70,2013-03-22 19:09:00,
2013-03-22 14:14:00,19.0,7.8,26.37,West,273,3.0,6.0,61,0.00,,,-99.99,Weather View 32 v70,2013-03-22 19:14:00,
2013-03-22 14:24:00,19.2,8.0,26.37,West,262,4.0,6.0,61,0.00,,,-99.99,Weather View 32 v70,2013-03-22 19:24:00,
2013-03-22 14:34:00,19.6,7.9,26.37,West,264,4.0,6.0,60,0.00,,,-99.99,Weather View 32 v70,2013-03-22 19:34:00,
2013-03-22 14:39:00,19.4,7.8,26.37,WSW,258,4.0,6.0,60,0.00,,,-99.99,Weather View 32 v70,2013-03-22 19:39:00,
2013-03-22 14:49:00,20.1,8.8,26.37,WSW,255,5.0,6.0,61,0.00,,,-99.99,Weather View 32 v70,2013-03-22 19:49:00,
2013-03-22 14:54:00,20.3,9.0,26.37,SW,227,3.0,6.0,61,0.00,,,-99.99,Weather View 32 v70,2013-03-22 19:54:00,
2013-03-22 15:04:00,20.8,9.9,26.37,WSW,258,3.0,6.0,62,0.00,,,-99.99,Weather View 32 v70,2013-03-22 20:04:00,
2013-03-22 15:14:00,20.5,8.4,26.37,West,277,4.0,6.0,59,0.00,,,-99.99,Weather View 32 v70,2013-03-22 20:14:00,
2013-03-22 15:24:00,20.7,8.6,26.37,West,272,4.0,6.0,59,0.00,,,-99.99,Weather View 32 v70,2013-03-22 20:24:00,
2013-03-22 15:29:00,20.7,8.6,26.37,West,274,3.0,6.0,59,0.00,,,-99.99,Weather View 32 v70,2013-03-22 20:29:00,
2013-03-22 15:39:00,20.5,8.4,26.37,West,268,5.0,6.0,59,0.00,,,-99.99,Weather View 32 v70,2013-03-22 20:39:00,
2013-03-22 15:45:00,20.5,8.4,26.37,WSW,248,8.0,8.0,59,0.00,,,-99.99,Weather View 32 v70,2013-03-22 20:45:00,
2013-03-22 15:55:00,20.7,8.6,26.37,West,276,6.0,8.0,59,0.00,,,-99.99,Weather View 32 v70,2013-03-22 20:55:00,
2013-03-22 16:05:00,20.7,9.0,26.37,West,268,5.0,8.0,60,0.00,,,-99.99,Weather View 32 v70,2013-03-22 21:05:00,
2013-03-22 16:15:00,20.7,8.6,26.37,WNW,294,4.0,8.0,59,0.00,,,-99.99,Weather View 32 v70,2013-03-22 21:15:00,
2013-03-22 16:20:00,20.7,9.0,26.37,West,266,3.0,8.0,60,0.00,,,-99.99,Weather View 32 v70,2013-03-22 21:20:00,
2013-03-22 16:30:00,20.7,8.6,26.37,WNW,294,5.0,8.0,59,0.00,,,-99.99,Weather View 32 v70,2013-03-22 21:30:00,
2013-03-22 16:40:00,20.5,8.8,26.37,WNW,292,4.0,8.0,60,0.00,,,-99.99,Weather View 32 v70,2013-03-22 21:40:00,
2013-03-22 16:45:00,20.5,8.8,26.37,West,273,4.0,8.0,60,0.00,,,-99.99,Weather View 32 v70,2013-03-22 21:45:00,
2013-03-22 16:55:00,20.5,8.8,26.37,NW,324,5.0,7.0,60,0.00,,,-99.99,Weather View 32 v70,2013-03-22 21:55:00,
2013-03-22 17:00:00,20.5,8.8,26.37,NW,305,4.0,7.0,60,0.00,,,-99.99,Weather View 32 v70,2013-03-22 22:00:00,
2013-03-22 17:05:00,20.3,8.6,26.37,West,266,4.0,7.0,60,0.00,,,-99.99,Weather View 32 v70,2013-03-22 22:05:00,
2013-03-22 17:10:00,20.7,9.3,26.37,West,265,3.0,7.0,61,0.00,,,-99.99,Weather View 32 v70,2013-03-22 22:10:00,
2013-03-22 17:15:00,21.0,10.0,26.37,NNW,337,4.0,7.0,62,0.00,,,-99.99,Weather View 32 v70,2013-03-22 22:15:00,
2013-03-22 17:20:00,21.2,10.6,26.37,North,357,4.0,7.0,63,0.00,,,-99.99,Weather View 32 v70,2013-03-22 22:20:00,
2013-03-22 17:25:00,21.4,10.4,26.37,North,357,0.0,7.0,62,0.00,,,-99.99,Weather View 32 v70,2013-03-22 22:25:00,
2013-03-22 17:35:00,21.4,10.7,26.37,West,277,3.0,7.0,63,0.00,,,-99.99,Weather View 32 v70,2013-03-22 22:35:00,
2013-03-22 17:40:00,21.6,10.9,26.37,WNW,286,2.0,7.0,63,0.00,,,-99.99,Weather View 32 v70,2013-03-22 22:40:00,
2013-03-22 17:45:00,21.6,10.9,26.37,West,262,3.0,7.0,63,0.00,,,-99.99,Weather View 32 v70,2013-03-22 22:45:00,
2013-03-22 17:55:00,21.4,10.4,26.37,West,264,4.0,6.0,62,0.00,,,-99.99,Weather View 32 v70,2013-03-22 22:55:00,
2013-03-22 18:00:00,21.2,10.2,26.37,West,266,4.0,6.0,62,0.00,,,-99.99,Weather View 32 v70,2013-03-22 23:00:00,
2013-03-22 18:10:00,20.7,9.3,26.37,WNW,301,3.0,5.0,61,0.00,,,-99.99,Weather View 32 v70,2013-03-22 23:10:00,
2013-03-22 18:15:00,20.8,9.9,26.37,North,349,4.0,5.0,62,0.00,,,-99.99,Weather View 32 v70,2013-03-22 23:15:00,
2013-03-22 18:20:00,21.0,10.4,26.37,East,84,3.0,5.0,63,0.00,,,-99.99,Weather View 32 v70,2013-03-22 23:20:00,
2013-03-22 18:25:00,21.4,11.1,26.37,ENE,60,0.0,5.0,64,0.00,,,-99.99,Weather View 32 v70,2013-03-22 23:25:00,
2013-03-22 18:30:00,21.4,11.8,26.37,NNE,29,0.0,5.0,66,0.00,,,-99.99,Weather View 32 v70,2013-03-22 23:30:00,
2013-03-22 18:40:00,21.2,12.0,26.37,North,5,0.0,5.0,67,0.00,,,-99.99,Weather View 32 v70,2013-03-22 23:40:00,
2013-03-22 18:50:00,20.8,11.9,26.37,North,357,0.0,5.0,68,0.00,,,-99.99,Weather View 32 v70,2013-03-22 23:50:00,
2013-03-22 19:00:00,20.3,11.1,26.37,North,357,3.0,5.0,67,0.00,,,-99.99,Weather View 32 v70,2013-03-23 00:00:00,
2013-03-22 19:10:00,19.9,10.4,26.37,North,1,3.0,5.0,66,0.00,,,-99.99,Weather View 32 v70,2013-03-23 00:10:00,
2013-03-22 19:20:00,19.6,10.4,26.37,North,3,0.0,4.0,67,0.00,,,-99.99,Weather View 32 v70,2013-03-23 00:20:00,
2013-03-22 19:25:00,19.4,10.2,26.37,NNW,341,0.0,4.0,67,0.00,,,-99.99,Weather View 32 v70,2013-03-23 00:25:00,
2013-03-22 19:30:00,19.0,9.9,26.37,North,357,0.0,4.0,67,0.00,,,-99.99,Weather View 32 v70,2013-03-23 00:30:00,
2013-03-22 19:40:00,18.7,9.9,26.37,North,11,2.0,4.0,68,0.00,,,-99.99,Weather View 32 v70,2013-03-23 00:40:00,
2013-03-22 19:50:00,18.5,9.7,26.37,North,11,0.0,4.0,68,0.00,,,-99.99,Weather View 32 v70,2013-03-23 00:50:00,
2013-03-22 20:00:00,18.3,9.9,26.37,North,357,0.0,4.0,69,0.00,,,-99.99,Weather View 32 v70,2013-03-23 01:00:00,
2013-03-22 20:10:00,18.3,9.9,26.37,North,357,0.0,4.0,69,0.00,,,-99.99,Weather View 32 v70,2013-03-23 01:10:00,
2013-03-22 20:19:00,18.1,10.0,26.37,North,357,0.0,4.0,70,0.00,,,-99.99,Weather View 32 v70,2013-03-23 01:19:00,
2013-03-22 20:29:00,18.1,10.0,26.37,North,357,0.0,4.0,70,0.00,,,-99.99,Weather View 32 v70,2013-03-23 01:29:00,
2013-03-22 20:35:00,18.1,10.3,26.37,North,357,0.0,4.0,71,0.00,,,-99.99,Weather View 32 v70,2013-03-23 01:35:00,
2013-03-22 20:40:00,18.1,10.3,26.37,North,357,0.0,4.0,71,0.00,,,-99.99,Weather View 32 v70,2013-03-23 01:40:00,
2013-03-22 20:49:00,18.1,10.3,26.37,North,357,0.0,4.0,71,0.00,,,-99.99,Weather View 32 v70,2013-03-23 01:49:00,
2013-03-22 21:00:00,18.1,10.6,26.37,North,357,0.0,0.0,72,0.00,,,-99.99,Weather View 32 v70,2013-03-23 02:00:00,
2013-03-22 21:09:00,17.8,10.3,26.37,North,357,0.0,0.0,72,0.00,,,-99.99,Weather View 32 v70,2013-03-23 02:09:00,
2013-03-22 21:19:00,17.6,10.1,26.37,North,357,0.0,0.0,72,0.00,,,-99.99,Weather View 32 v70,2013-03-23 02:19:00,
2013-03-22 21:29:00,17.4,9.9,26.37,NNW,335,0.0,0.0,72,0.00,,,-99.99,Weather View 32 v70,2013-03-23 02:29:00,
2013-03-22 21:34:00,17.4,9.9,26.37,NNW,335,0.0,0.0,72,0.00,,,-99.99,Weather View 32 v70,2013-03-23 02:34:00,
2013-03-22 21:44:00,17.1,9.6,26.37,NNW,335,0.0,0.0,72,0.00,,,-99.99,Weather View 32 v70,2013-03-23 02:44:00,
2013-03-22 21:54:00,16.9,9.4,26.37,NNW,335,0.0,0.0,72,0.00,,,-99.99,Weather View 32 v70,2013-03-23 02:54:00,
2013-03-22 22:00:00,16.9,9.4,26.37,NNW,330,3.0,3.0,72,0.00,,,-99.99,Weather View 32 v70,2013-03-23 03:00:00,
2013-03-22 22:09:00,16.7,8.9,26.37,NNW,330,2.0,4.0,71,0.00,,,-99.99,Weather View 32 v70,2013-03-23 03:09:00,
2013-03-22 22:14:00,16.5,8.8,26.37,West,269,3.0,4.0,71,0.00,,,-99.99,Weather View 32 v70,2013-03-23 03:14:00,
2013-03-22 22:19:00,16.0,7.9,26.37,West,262,0.0,4.0,70,0.00,,,-99.99,Weather View 32 v70,2013-03-23 03:19:00,
2013-03-22 22:24:00,15.6,7.6,26.37,West,261,3.0,4.0,70,0.00,,,-99.99,Weather View 32 v70,2013-03-23 03:24:00,
2013-03-22 22:34:00,15.1,7.1,26.37,West,266,0.0,4.0,70,0.00,,,-99.99,Weather View 32 v70,2013-03-23 03:34:00,
2013-03-22 22:39:00,15.1,7.1,26.37,West,267,0.0,4.0,70,0.00,,,-99.99,Weather View 32 v70,2013-03-23 03:39:00,
2013-03-22 22:49:00,15.3,7.6,26.37,West,267,0.0,4.0,71,0.00,,,-99.99,Weather View 32 v70,2013-03-23 03:49:00,
2013-03-22 22:54:00,15.4,7.7,26.37,West,266,0.0,4.0,71,0.00,,,-99.99,Weather View 32 v70,2013-03-23 03:54:00,
2013-03-22 23:00:00,15.3,7.6,26.37,West,268,0.0,4.0,71,0.00,,,-99.99,Weather View 32 v70,2013-03-23 04:00:00,
2013-03-22 23:04:00,15.1,7.4,26.37,West,267,0.0,4.0,71,0.00,,,-99.99,Weather View 32 v70,2013-03-23 04:04:00,
2013-03-22 23:09:00,14.9,7.2,26.37,West,266,0.0,4.0,71,0.00,,,-99.99,Weather View 32 v70,2013-03-23 04:09:00,
2013-03-22 23:14:00,14.4,6.4,26.37,West,266,0.0,4.0,70,0.00,,,-99.99,Weather View 32 v70,2013-03-23 04:14:00,
2013-03-22 23:19:00,14.2,6.2,26.37,West,267,0.0,4.0,70,0.00,,,-99.99,Weather View 32 v70,2013-03-23 04:19:00,
2013-03-22 23:25:00,13.8,6.2,26.37,West,267,0.0,4.0,71,0.00,,,-99.99,Weather View 32 v70,2013-03-23 04:25:00,
2013-03-22 23:34:00,13.3,5.6,26.37,West,267,0.0,4.0,71,0.00,,,-99.99,Weather View 32 v70,2013-03-23 04:34:00,
2013-03-22 23:39:00,13.1,5.5,26.37,West,266,0.0,4.0,71,0.00,,,-99.99,Weather View 32 v70,2013-03-23 04:39:00,
2013-03-22 23:49:00,12.6,5.0,26.37,West,267,0.0,4.0,71,0.00,,,-99.99,Weather View 32 v70,2013-03-23 04:49:00,
2013-03-22 23:54:00,12.4,4.8,26.37,West,266,0.0,4.0,71,0.00,,,-99.99,Weather View 32 v70,2013-03-23 04:54:00,